Sarakhs, Iran

10:00 AM IRDT on August 22, 2014 (GMT +0430)
SARAKHS | Change Station
CLOSE
Current Station
Airport
Location: SARAKHS,
Elevation: 945 ft
Nearby Weather Stations

Elev 945 ft 36.50 °N, 61.06 °E | Updated 1 hour ago

Clear
Clear
88 °F
Feels Like 88 °F
N
7
Wind Variable Wind from NW

Today
High -- | Low -- °F
--% Chance of Precip.
Yesterday
High -- | Low -- °F
Precip. -- in
5:48 AM 7:07 PM
Waning Crescent, 10% visible
Pressure 29.80 in
Visibility -9999.0 miles
Clouds
Dew Point 43 °F
Humidity 21%
Rainfall 0.00 in
Snow Depth Not available.
UV Not available.
Pollen Not available.
Air Quality Not available.
Flu Activity Not available.
METAR OIMC 220350Z 31006KT CAVOK 31/06 Q1009

More Conditions Fewer Conditions

Pressure 29.80 in
Visibility -9999.0 miles
Clouds
Dew Point 43 °F
Humidity 21%
Rainfall 0.00 in
Snow Depth Not available.
UV Not available.
Pollen Not available.
Air Quality Not available.
Flu Activity Not available.
METAR OIMC 220350Z 31006KT CAVOK 31/06 Q1009

More Conditions Fewer Conditions

10-Day Weather Forecast

Almanac

Astronomy

Aug. 22, 2014 Rise Set
Actual Time 5:48 AM IRDT 7:07 PM IRDT
Civil Twilight 5:21 AM IRDT 7:34 PM IRDT
Nautical Twilight 4:48 AM IRDT 8:06 PM IRDT
Astronomical Twilight 4:15 AM IRDT 8:40 PM IRDT
Moon 2:51 AM IRDT 4:58 PM IRDT
Length of Visible Light 14h 13m
Length of Day
13h 19m
Tomorrow will be 2m 9s shorter.
Waning Crescent, 10% of the Moon is Illuminated
Today
Waning Crescent
Aug 25
New
Sep 2
First Quarter
Sep 8
Full
Sep 15
Last Quarter

Yesterday's Extremes

Country Highs Country Lows

Community

WunderPhotos

Upload Photos

1,746,131 photos uploaded!

Nearby

Snow Depth

Not available.

Earthquake Activity

City Distance Mag. Time & Date
No recent earthquake activity has been reported nearby.
Minimum magnitude displayed is 2.5.

Coastal Water Temperatures

Place Temperature
No Stations Reporting

Nearby Weather Stations